Claremont, Minnesota
Current Conditions -  °F | °C
As of 11:54 PM on Saturday 22 Nov 2014 (Local Time) from KTOB Reporting Station
Moderate Fog Moderate Fog  
Wind Chill: 40°   Ceiling: 100
Heat Index: 46°   Visibility: 0.25mi
Dew Point: 46°   Wind: 16mph
Humidity: 100%   Direction: 190°S
Pressure: 29.54"   Gusts: 22mph
Location:  44.04°N, 93°W
Report Text: KTOB 230554Z AUTO 19014G19KT 1/4SM FG OVC001 08/08 A2954 RMK AO2
Loading
Personal Weather Stations






























Interactive Weather Map New forecast layout! Learn more

10-Day Weather Forecast

Advertisements
Track Severe Weather on mobile